Time;durP1;ratioP1;P1;durP2;ratioP2;P2;SDS_P1;SDS_P2;PMS_P1;PMS_P2;Temp;Humidity;BMP_temperature;BMP_pressure;BME280_temperature;BME280_humidity;BME280_pressure;Samples;Min_cycle;Max_cycle;Signal;HPM_P1;HPM_P2
2022/08/19 00:00:31;;;;;;;15.80;9.40;;;;;;;17.14;80.00;101247.44;5067817;28;20040;-67
2022/08/19 00:02:57;;;;;;;15.90;9.55;;;;;;;17.12;80.20;101249.47;5065465;28;20522;-67
2022/08/19 00:05:23;;;;;;;13.80;9.23;;;;;;;17.11;80.48;101247.72;5066412;28;20510;-67
2022/08/19 00:07:50;;;;;;;17.65;10.38;;;;;;;17.06;80.41;101245.41;5064486;28;20108;-67
2022/08/19 00:10:17;;;;;;;13.20;9.30;;;;;;;17.03;80.24;101244.84;5063823;28;20043;-68
2022/08/19 00:12:42;;;;;;;15.88;9.23;;;;;;;16.99;80.39;101237.88;5067799;28;20416;-67
2022/08/19 00:15:12;;;;;;;14.88;9.60;;;;;;;16.96;81.07;101239.03;5066231;28;20048;-67
2022/08/19 00:17:39;;;;;;;13.77;9.07;;;;;;;16.90;80.71;101236.00;5065753;28;20502;-67
2022/08/19 00:20:06;;;;;;;14.45;8.73;;;;;;;16.91;80.28;101234.97;5066129;28;20578;-67
2022/08/19 00:22:33;;;;;;;15.15;9.00;;;;;;;16.90;80.64;101241.50;5065484;28;20068;-67
2022/08/19 00:24:58;;;;;;;16.45;10.05;;;;;;;16.88;81.33;101235.25;5059645;28;20055;-66
2022/08/19 00:27:24;;;;;;;20.63;11.98;;;;;;;16.83;82.36;101236.56;5056951;28;20044;-67
2022/08/19 00:29:50;;;;;;;17.50;10.60;;;;;;;16.85;81.76;101241.91;5066998;28;20455;-67
2022/08/19 00:32:16;;;;;;;17.63;11.00;;;;;;;16.81;83.00;101237.72;5065136;28;20036;-69
2022/08/19 00:34:41;;;;;;;17.95;10.65;;;;;;;16.78;83.07;101238.84;5070367;28;20039;-67
2022/08/19 00:37:07;;;;;;;15.18;11.77;;;;;;;16.75;82.81;101241.91;5066336;28;20032;-68
2022/08/19 00:39:32;;;;;;;15.63;11.23;;;;;;;16.74;84.56;101242.03;5063317;28;20040;-67
2022/08/19 00:41:58;;;;;;;18.40;11.18;;;;;;;16.70;83.24;101246.91;5065288;28;20028;-67
2022/08/19 00:44:26;;;;;;;18.67;11.63;;;;;;;16.67;84.04;101247.19;5066654;28;20044;-67
2022/08/19 00:46:54;;;;;;;17.33;12.07;;;;;;;16.68;84.28;101245.31;5065699;28;20051;-67
2022/08/19 00:49:29;;;;;;;19.55;11.77;;;;;;;16.67;83.70;101246.31;5065507;28;20145;-67
2022/08/19 00:52:29;;;;;;;20.45;13.32;;;;;;;16.66;84.05;101245.47;5065192;28;20036;-67
2022/08/19 00:54:56;;;;;;;19.58;13.15;;;;;;;16.62;85.21;101252.25;5053775;28;20060;-67
2022/08/19 00:57:29;;;;;;;18.35;12.73;;;;;;;16.61;84.04;101241.41;5066290;28;20048;-67
2022/08/19 00:59:57;;;;;;;16.80;10.98;;;;;;;16.60;82.85;101243.28;5066544;28;20037;-67
2022/08/19 01:02:24;;;;;;;21.77;11.90;;;;;;;16.52;83.59;101243.09;5065976;28;20059;-68
2022/08/19 01:04:49;;;;;;;16.27;10.93;;;;;;;16.48;83.30;101248.00;5064017;28;20041;-68
2022/08/19 01:07:15;;;;;;;15.27;10.95;;;;;;;16.45;82.69;101240.03;5063684;28;20608;-68
2022/08/19 01:09:40;;;;;;;13.82;9.70;;;;;;;16.45;82.56;101240.03;5062995;28;20128;-67
2022/08/19 01:12:06;;;;;;;16.30;9.90;;;;;;;16.43;82.67;101249.44;5065956;28;20025;-67
2022/08/19 01:14:33;;;;;;;19.60;10.65;;;;;;;16.39;81.95;101254.34;5065026;28;20093;-67
2022/08/19 01:16:59;;;;;;;15.45;9.65;;;;;;;16.36;81.51;101253.72;5064031;28;20036;-67
2022/08/19 01:19:37;;;;;;;17.75;10.27;;;;;;;16.36;82.15;101251.00;5064477;28;20135;-67
2022/08/19 01:22:14;;;;;;;17.40;9.55;;;;;;;16.32;81.31;101245.78;5065015;28;20877;-67
2022/08/19 01:24:40;;;;;;;15.88;9.70;;;;;;;16.28;82.01;101251.69;5063647;28;20045;-67
2022/08/19 01:27:07;;;;;;;17.67;9.07;;;;;;;16.28;81.54;101246.22;5065947;28;20047;-68
2022/08/19 01:29:33;;;;;;;21.70;8.85;;;;;;;16.24;81.39;101239.25;5064774;28;20456;-68
2022/08/19 01:32:00;;;;;;;18.73;9.98;;;;;;;16.23;82.83;101245.75;5065672;28;20067;-67
2022/08/19 01:34:26;;;;;;;17.80;10.60;;;;;;;16.21;83.44;101247.75;5064891;28;20113;-68
2022/08/19 01:36:51;;;;;;;22.42;11.88;;;;;;;16.19;83.77;101239.66;5065832;28;20043;-69
2022/08/19 01:39:21;;;;;;;21.08;11.82;;;;;;;16.19;84.06;101241.53;5062001;28;20040;-67
2022/08/19 01:41:47;;;;;;;20.00;12.90;;;;;;;16.19;84.48;101242.41;5064805;28;20024;-67
2022/08/19 01:44:14;;;;;;;22.42;13.13;;;;;;;16.19;84.05;101245.16;5065872;28;20111;-70
2022/08/19 01:46:39;;;;;;;23.33;12.40;;;;;;;16.19;83.12;101236.06;5066595;28;20040;-67
2022/08/19 01:49:05;;;;;;;19.08;10.25;;;;;;;16.18;82.64;101240.69;5064197;28;20040;-67
2022/08/19 01:51:31;;;;;;;20.17;10.55;;;;;;;16.18;82.80;101237.03;5064212;28;20391;-68
2022/08/19 01:53:57;;;;;;;15.75;9.77;;;;;;;16.16;83.57;101239.94;5061346;28;20024;-67
2022/08/19 01:56:23;;;;;;;15.68;10.15;;;;;;;16.15;83.52;101243.69;5065931;28;20637;-69
2022/08/19 01:58:53;;;;;;;19.15;10.80;;;;;;;16.12;85.55;101229.38;5065645;28;20043;-67
2022/08/19 02:01:19;;;;;;;16.40;11.88;;;;;;;16.16;84.82;101239.06;5063955;28;20079;-67
2022/08/19 02:03:45;;;;;;;17.67;11.65;;;;;;;16.18;84.58;101243.44;5062983;28;20066;-67
2022/08/19 02:06:11;;;;;;;27.02;15.50;;;;;;;16.19;86.38;101247.03;5063997;28;20033;-67
2022/08/19 02:08:39;;;;;;;13.73;9.73;;;;;;;16.15;83.99;101240.06;5061467;28;20036;-66
2022/08/19 02:11:06;;;;;;;18.50;11.00;;;;;;;16.16;84.42;101252.78;5064290;28;20076;-67
2022/08/19 02:13:32;;;;;;;18.60;11.07;;;;;;;16.15;84.19;101251.06;5064012;28;20041;-69
2022/08/19 02:15:57;;;;;;;25.42;14.40;;;;;;;16.20;86.13;101259.75;5064081;28;20040;-67
2022/08/19 02:18:23;;;;;;;26.52;15.73;;;;;;;16.21;86.36;101258.72;5064218;28;20128;-69
2022/08/19 02:20:48;;;;;;;18.30;11.65;;;;;;;16.18;84.70;101259.00;5063941;28;20059;-67
2022/08/19 02:23:15;;;;;;;19.50;11.75;;;;;;;16.10;84.08;101270.69;5051728;28;20123;-68
2022/08/19 02:25:41;;;;;;;23.88;12.75;;;;;;;16.02;84.72;101260.38;5053932;28;20063;-67
2022/08/19 02:28:07;;;;;;;22.60;11.98;;;;;;;16.00;83.08;101264.28;5051308;28;20064;-69
2022/08/19 02:30:33;;;;;;;21.33;13.38;;;;;;;16.00;83.94;101270.63;5063707;28;20127;-69
2022/08/19 02:32:59;;;;;;;29.83;19.15;;;;;;;16.02;87.84;101268.59;5056852;28;20037;-68
2022/08/19 02:35:25;;;;;;;30.60;18.67;;;;;;;16.00;87.83;101267.88;5063515;28;20058;-67
2022/08/19 02:40:35;;;;;;;34.80;20.95;;;;;;;16.02;89.44;101274.09;5063189;28;20037;-69
2022/08/19 02:43:08;;;;;;;28.85;19.75;;;;;;;16.05;88.03;101273.84;5064022;28;20446;-69
2022/08/19 02:45:35;;;;;;;33.60;20.48;;;;;;;16.08;90.39;101261.69;5064093;28;20114;-68
2022/08/19 02:48:01;;;;;;;31.38;20.25;;;;;;;16.07;89.45;101268.19;5061051;28;20107;-67
2022/08/19 02:50:26;;;;;;;33.50;20.23;;;;;;;16.05;89.11;101273.84;5061788;28;20036;-67
2022/08/19 02:52:52;;;;;;;33.97;19.80;;;;;;;16.06;88.32;101282.94;5051953;28;20071;-68
2022/08/19 02:55:17;;;;;;;38.65;21.02;;;;;;;16.06;88.79;101288.44;5048459;28;20065;-68
2022/08/19 02:57:42;;;;;;;34.03;22.90;;;;;;;16.05;89.60;101287.56;5052397;28;20025;-68
2022/08/19 03:00:12;;;;;;;34.10;21.20;;;;;;;16.07;89.50;101291.03;5047614;28;20107;-67
2022/08/19 03:02:37;;;;;;;32.45;21.30;;;;;;;16.10;88.91;101291.78;5058759;28;20040;-69
2022/08/19 03:05:05;;;;;;;29.40;19.50;;;;;;;16.09;88.92;101288.16;5063209;28;20044;-67
2022/08/19 03:07:30;;;;;;;26.95;17.80;;;;;;;16.02;88.02;101274.09;5062568;28;20071;-67
2022/08/19 03:09:56;;;;;;;29.85;18.63;;;;;;;15.98;87.57;101277.25;5059608;28;20071;-68
2022/08/19 03:12:21;;;;;;;25.40;16.58;;;;;;;15.94;86.42;101273.91;5063684;28;20044;-68
2022/08/19 03:14:47;;;;;;;25.42;15.75;;;;;;;15.94;85.58;101264.81;5059290;28;20505;-67
2022/08/19 03:17:12;;;;;;;26.38;17.55;;;;;;;15.93;86.40;101271.31;5048752;28;20036;-67
2022/08/19 03:19:38;;;;;;;29.20;17.02;;;;;;;15.91;85.69;101276.94;5066388;28;20040;-68
2022/08/19 03:22:04;;;;;;;26.00;17.92;;;;;;;15.90;85.77;101277.03;5065283;28;20116;-67
2022/08/19 03:24:30;;;;;;;31.33;18.98;;;;;;;15.91;86.25;101287.91;5060067;28;20032;-69
2022/08/19 03:26:57;;;;;;;30.98;19.42;;;;;;;15.89;86.50;101280.81;5067061;28;20483;-67
2022/08/19 03:29:24;;;;;;;27.58;16.58;;;;;;;15.90;85.79;101277.03;5052379;28;20067;-67
2022/08/19 03:31:51;;;;;;;36.65;22.13;;;;;;;15.89;87.95;101275.31;5067098;28;20032;-68
2022/08/19 03:34:26;;;;;;;30.40;19.30;;;;;;;15.86;86.65;101279.22;5046248;28;20111;-68
2022/08/19 03:36:54;;;;;;;34.92;22.02;;;;;;;15.81;88.12;101270.53;5056757;28;20042;-68
2022/08/19 03:39:20;;;;;;;33.35;20.33;;;;;;;15.77;87.19;101277.28;5057472;28;20048;-67
2022/08/19 03:41:48;;;;;;;28.55;17.73;;;;;;;15.72;85.51;101277.69;5060425;28;20043;-68
2022/08/19 03:44:14;;;;;;;28.63;17.95;;;;;;;15.69;85.48;101271.59;5066777;28;20065;-69
2022/08/19 03:46:40;;;;;;;31.60;17.42;;;;;;;15.65;85.60;101267.38;5066460;28;20028;-68
2022/08/19 03:49:08;;;;;;;31.67;18.50;;;;;;;15.62;85.53;101259.34;5052673;28;20048;-68
2022/08/19 03:51:37;;;;;;;28.45;17.80;;;;;;;15.57;86.54;101262.50;5063691;28;20054;-69
2022/08/19 03:54:05;;;;;;;32.10;20.00;;;;;;;15.57;86.34;101259.75;5059683;28;20044;-68
2022/08/19 03:56:34;;;;;;;39.13;23.98;;;;;;;15.57;88.90;101260.66;5066934;28;20032;-68
2022/08/19 03:58:59;;;;;;;52.00;22.20;;;;;;;15.55;89.68;101262.66;5066323;28;20753;-68
2022/08/19 04:01:27;;;;;;;31.88;21.35;;;;;;;15.53;89.38;101259.19;5066241;28;20041;-67
2022/08/19 04:03:56;;;;;;;36.33;22.27;;;;;;;15.50;89.17;101259.44;5067190;28;20060;-67
2022/08/19 04:06:24;;;;;;;38.88;21.92;;;;;;;15.45;89.02;101261.72;5066256;28;20079;-68
2022/08/19 04:08:53;;;;;;;34.40;21.20;;;;;;;15.44;88.78;101257.22;5063311;28;20036;-69
2022/08/19 04:11:24;;;;;;;39.78;24.60;;;;;;;15.47;89.27;101261.56;5066786;28;20523;-67
2022/08/19 04:13:51;;;;;;;38.38;23.30;;;;;;;15.45;88.41;101258.97;5066956;28;20471;-68
2022/08/19 04:16:21;;;;;;;51.78;30.75;;;;;;;15.47;91.11;101258.81;5065608;28;20028;-68
2022/08/19 04:18:48;;;;;;;32.97;20.08;;;;;;;15.44;87.48;101259.09;5066766;28;20032;-68
2022/08/19 04:21:19;;;;;;;36.63;21.80;;;;;;;15.40;89.36;101255.75;5061746;28;20444;-70
2022/08/19 04:23:45;;;;;;;31.17;19.52;;;;;;;15.35;87.54;101263.50;5062741;28;20101;-67
2022/08/19 04:26:19;;;;;;;42.70;25.27;;;;;;;15.32;89.65;101266.50;5067738;28;20032;-68
2022/08/19 04:28:45;;;;;;;31.90;18.95;;;;;;;15.26;87.03;101265.16;5048926;28;20063;-68
2022/08/19 04:31:20;;;;;;;39.17;22.20;;;;;;;15.25;88.07;101254.34;5067584;28;20021;-67
2022/08/19 04:33:45;;;;;;;36.63;22.98;;;;;;;15.21;88.25;101241.91;5063995;28;20033;-67
2022/08/19 04:36:20;;;;;;;51.05;27.98;;;;;;;15.23;91.20;101253.59;5064934;28;20487;-68
2022/08/19 04:38:52;;;;;;;44.65;26.00;;;;;;;15.22;89.58;101252.72;5061744;28;20559;-67
2022/08/19 04:44:02;;;;;;;38.42;23.15;;;;;;;15.19;88.02;101258.44;5064506;28;20032;-68
2022/08/19 04:46:30;;;;;;;40.55;24.10;;;;;;;15.16;87.94;101256.00;5066530;28;20047;-68
2022/08/19 04:48:56;;;;;;;32.83;20.13;;;;;;;15.16;86.91;101260.59;5064703;28;20448;-68
2022/08/19 04:51:22;;;;;;;31.60;20.02;;;;;;;15.16;86.01;101264.22;5065669;28;20483;-68
2022/08/19 04:53:48;;;;;;;32.97;20.60;;;;;;;15.14;85.97;101263.47;5062632;28;20032;-69
2022/08/19 04:56:15;;;;;;;35.25;21.30;;;;;;;15.14;85.85;101266.19;5064462;28;20060;-70
2022/08/19 04:58:43;;;;;;;32.60;20.15;;;;;;;15.15;85.88;101281.63;5067005;28;20503;-68
2022/08/19 05:01:12;;;;;;;40.67;22.80;;;;;;;15.15;86.35;101275.28;5064113;28;20035;-68
2022/08/19 05:03:37;;;;;;;33.72;20.40;;;;;;;15.13;85.90;101272.69;5063741;28;20036;-68
2022/08/19 05:06:08;;;;;;;35.92;20.85;;;;;;;15.13;86.32;101283.66;5065152;28;20098;-69
2022/08/19 05:08:35;;;;;;;30.48;19.08;;;;;;;15.13;86.30;101282.78;5062040;28;20037;-68
2022/08/19 05:11:12;;;;;;;33.00;19.55;;;;;;;15.14;85.81;101287.25;5055488;28;20044;-68
2022/08/19 05:13:37;;;;;;;31.83;20.73;;;;;;;15.14;86.17;101287.25;5064965;28;20047;-68
2022/08/19 05:16:03;;;;;;;42.08;23.10;;;;;;;15.14;88.08;101279.03;5065341;28;20434;-69
2022/08/19 05:24:01;;;;;;;38.38;21.73;;;;;;;15.24;86.75;101301.91;5053699;28;20052;-69
2022/08/19 05:26:27;;;;;;;52.30;30.38;;;;;;;15.28;88.97;101307.00;5060088;28;20028;-69
2022/08/19 05:28:54;;;;;;;51.33;29.92;;;;;;;15.36;88.84;101313.72;5062945;28;20031;-68
2022/08/19 05:31:20;;;;;;;51.05;29.40;;;;;;;15.45;88.78;101312.94;5060596;28;20495;-68
2022/08/19 05:33:45;;;;;;;57.15;32.03;;;;;;;15.48;89.28;101301.69;5062400;28;20471;-68
2022/08/19 05:36:11;;;;;;;62.67;32.70;;;;;;;15.61;89.15;101318.84;5063747;28;20145;-68
2022/08/19 05:38:37;;;;;;;70.68;38.72;;;;;;;15.70;90.72;101328.19;5058330;28;20052;-69
2022/08/19 05:41:13;;;;;;;62.70;32.65;;;;;;;15.75;90.39;101328.66;5063450;28;20103;-68
2022/08/19 05:43:38;;;;;;;70.53;37.10;;;;;;;15.78;91.26;101322.91;5060183;28;20105;-69
2022/08/19 05:46:05;;;;;;;66.07;35.97;;;;;;;15.84;91.18;101326.97;5064308;28;20044;-67
2022/08/19 05:48:32;;;;;;;65.82;36.67;;;;;;;15.89;91.29;101322.81;5060769;28;20036;-69
2022/08/19 05:50:59;;;;;;;57.60;31.92;;;;;;;15.96;89.37;101323.19;5062576;28;20044;-68
2022/08/19 05:53:25;;;;;;;73.00;37.38;;;;;;;16.04;90.44;101335.22;5058712;28;20635;-69
2022/08/19 05:55:50;;;;;;;72.65;36.17;;;;;;;16.17;89.42;101326.75;5062772;28;20029;-69
2022/08/19 05:58:17;;;;;;;71.45;38.53;;;;;;;16.25;89.92;101331.59;5061066;28;20037;-68
2022/08/19 06:00:44;;;;;;;66.82;37.92;;;;;;;16.31;89.27;101323.66;5064451;28;20108;-69
2022/08/19 06:03:09;;;;;;;70.38;39.53;;;;;;;16.36;88.95;101315.00;5063989;28;20049;-70
2022/08/19 06:05:35;;;;;;;74.72;40.33;;;;;;;16.37;89.65;101316.78;5059410;28;20052;-68
2022/08/19 06:08:01;;;;;;;73.22;37.13;;;;;;;16.43;89.21;101307.97;5059906;28;20029;-68
2022/08/19 06:10:27;;;;;;;71.60;39.50;;;;;;;16.49;88.89;101312.91;5062363;28;20040;-69
2022/08/19 06:12:53;;;;;;;66.47;37.05;;;;;;;16.55;89.08;101311.47;5063409;28;20032;-69
2022/08/19 06:15:19;;;;;;;64.22;37.45;;;;;;;16.63;88.26;101308.06;5063882;28;20031;-68
2022/08/19 06:17:44;;;;;;;71.95;38.50;;;;;;;16.65;89.12;101308.81;5061534;28;20040;-68
2022/08/19 06:20:13;;;;;;;74.30;39.72;;;;;;;16.66;88.91;101300.41;5062792;28;20071;-70
2022/08/19 06:22:44;;;;;;;72.38;38.28;;;;;;;16.71;89.24;101297.25;5055697;28;20031;-69
2022/08/19 06:25:12;;;;;;;73.53;39.80;;;;;;;16.77;88.21;101303.06;5060731;28;20032;-69
2022/08/19 06:27:37;;;;;;;68.10;37.05;;;;;;;16.78;88.42;101306.69;5063349;28;20020;-69
2022/08/19 06:30:04;;;;;;;76.25;39.58;;;;;;;16.79;88.81;101308.44;5063925;28;20524;-68
2022/08/19 06:32:30;;;;;;;71.38;38.92;;;;;;;16.81;89.51;101298.16;5062741;28;20523;-69
2022/08/19 06:34:55;;;;;;;69.07;38.42;;;;;;;16.83;89.18;101302.53;5060603;28;20025;-68
2022/08/19 06:37:21;;;;;;;74.75;38.47;;;;;;;16.89;88.77;101297.47;5062385;28;20115;-69
2022/08/19 06:39:46;;;;;;;70.30;38.25;;;;;;;16.90;88.53;101301.94;5058389;28;20413;-69
2022/08/19 06:42:16;;;;;;;66.03;36.30;;;;;;;16.94;88.92;101295.16;5063712;28;20062;-69
2022/08/19 06:44:44;;;;;;;65.20;33.85;;;;;;;16.98;88.53;101308.50;5065705;28;20050;-70
2022/08/19 06:47:13;;;;;;;70.55;36.90;;;;;;;16.98;89.99;101303.00;5063621;28;20083;-68
2022/08/19 06:49:38;;;;;;;68.20;34.90;;;;;;;17.02;89.28;101306.31;5062109;28;20033;-68
2022/08/19 06:52:05;;;;;;;67.18;36.15;;;;;;;17.07;88.92;101302.16;5065252;28;20045;-69
2022/08/19 06:54:30;;;;;;;70.35;36.00;;;;;;;17.11;89.85;101305.44;5061611;28;20043;-69
2022/08/19 06:57:03;;;;;;;73.20;36.80;;;;;;;17.12;90.40;101303.59;5048943;28;20037;-69
2022/08/19 06:59:32;;;;;;;67.63;35.58;;;;;;;17.16;90.01;101307.78;5052721;28;20039;-68
2022/08/19 07:02:00;;;;;;;63.42;33.92;;;;;;;17.21;90.07;101309.09;5068324;28;20070;-69
2022/08/19 07:04:29;;;;;;;61.65;33.72;;;;;;;17.36;89.55;101308.69;5066729;28;20034;-69
2022/08/19 07:06:59;;;;;;;67.20;33.65;;;;;;;17.53;89.38;101310.69;5068286;28;20553;-70
2022/08/19 07:09:25;;;;;;;69.32;35.58;;;;;;;17.76;89.22;101303.03;5064932;28;20036;-69
2022/08/19 07:11:52;;;;;;;61.05;33.03;;;;;;;17.96;89.07;101309.41;5067948;28;20514;-70
2022/08/19 07:14:25;;;;;;;75.97;34.78;;;;;;;18.06;88.85;101311.13;5067307;28;20174;-71
2022/08/19 07:16:54;;;;;;;68.82;35.30;;;;;;;18.19;88.86;101316.31;5068452;28;20132;-69
2022/08/19 07:19:22;;;;;;;67.72;34.72;;;;;;;18.34;88.32;101322.22;5065237;28;20236;-69
2022/08/19 07:21:50;;;;;;;74.07;33.80;;;;;;;18.42;87.74;101319.59;5067559;28;20040;-68
2022/08/19 07:24:16;;;;;;;69.90;36.22;;;;;;;18.45;87.12;101326.66;5064538;28;20021;-69
2022/08/19 07:26:43;;;;;;;74.85;36.05;;;;;;;18.51;87.21;101324.19;5068933;28;20040;-68
2022/08/19 07:29:11;;;;;;;62.80;33.40;;;;;;;18.66;86.30;101332.81;5066375;28;20159;-69
2022/08/19 07:31:36;;;;;;;64.70;35.22;;;;;;;18.85;86.20;101331.91;5067031;28;20048;-68
2022/08/19 07:34:07;;;;;;;66.22;34.08;;;;;;;18.93;87.27;101333.88;5067774;28;20452;-69
2022/08/19 07:36:35;;;;;;;64.53;34.10;;;;;;;19.06;86.55;101326.09;5066832;28;20523;-68
2022/08/19 07:39:05;;;;;;;71.10;37.20;;;;;;;19.15;86.56;101327.06;5064385;28;20226;-68
2022/08/19 07:41:31;;;;;;;70.00;37.03;;;;;;;19.12;84.78;101331.03;5066776;28;20055;-69
2022/08/19 07:44:03;;;;;;;64.25;34.33;;;;;;;19.23;85.19;101329.91;5067851;28;20036;-69
2022/08/19 07:46:33;;;;;;;63.08;33.70;;;;;;;19.31;83.36;101339.16;5066885;28;20066;-69
2022/08/19 07:49:00;;;;;;;64.78;34.90;;;;;;;19.37;84.39;101341.28;5066308;28;20529;-68
2022/08/19 07:51:26;;;;;;;62.28;34.67;;;;;;;19.43;83.99;101345.31;5065369;28;20057;-69
2022/08/19 07:53:52;;;;;;;58.78;34.17;;;;;;;19.46;84.05;101349.66;5062051;28;20496;-69
2022/08/19 07:56:20;;;;;;;70.70;38.28;;;;;;;19.46;82.96;101355.19;5068070;28;20047;-68
2022/08/19 07:58:48;;;;;;;67.72;37.58;;;;;;;19.59;83.75;101358.41;5067640;28;20032;-68
2022/08/19 08:01:20;;;;;;;61.95;35.67;;;;;;;19.65;81.71;101363.34;5066849;28;20044;-70
2022/08/19 08:09:23;;;;;;;65.47;36.72;;;;;;;19.78;81.46;101360.19;5062756;28;20530;-68
2022/08/19 08:12:01;;;;;;;63.10;36.78;;;;;;;19.75;81.59;101364.13;5067384;28;20395;-68
2022/08/19 08:14:34;;;;;;;70.82;38.65;;;;;;;19.78;82.73;101362.94;5066475;28;20098;-69
2022/08/19 08:17:01;;;;;;;66.28;38.38;;;;;;;19.77;82.51;101363.94;5067295;28;20101;-68
2022/08/19 08:19:28;;;;;;;61.03;37.28;;;;;;;19.73;81.69;101371.69;5063937;28;20035;-70
2022/08/19 08:21:56;;;;;;;60.88;37.88;;;;;;;19.73;81.75;101366.19;5051047;28;20036;-70
2022/08/19 08:24:21;;;;;;;61.33;37.13;;;;;;;19.79;81.46;101372.97;5063721;28;20500;-69
2022/08/19 08:26:46;;;;;;;66.28;38.92;;;;;;;19.82;81.85;101370.75;5067262;28;20025;-67
2022/08/19 08:29:13;;;;;;;65.68;37.70;;;;;;;19.81;81.68;101381.94;5066405;28;20097;-68
2022/08/19 08:31:40;;;;;;;66.65;38.88;;;;;;;19.91;81.37;101385.50;5067605;28;20502;-68
2022/08/19 08:34:06;;;;;;;61.63;39.63;;;;;;;19.95;82.26;101386.91;5065630;28;20361;-69
2022/08/19 08:36:33;;;;;;;70.70;41.58;;;;;;;20.00;83.54;101391.94;5066092;28;20061;-68
2022/08/19 08:38:59;;;;;;;60.10;36.42;;;;;;;20.06;80.15;101388.56;5063058;28;20116;-68
2022/08/19 08:41:53;;;;;;;60.15;36.90;;;;;;;20.14;81.75;101388.63;5067134;28;20042;-68
2022/08/19 08:44:32;;;;;;;58.20;35.50;;;;;;;20.27;80.64;101394.59;5065879;28;20044;-68
2022/08/19 08:47:02;;;;;;;54.83;34.30;;;;;;;20.45;79.46;101394.56;5066825;28;20046;-67
2022/08/19 08:49:42;;;;;;;63.30;35.35;;;;;;;20.60;79.44;101404.00;5044353;28;20045;-68
2022/08/19 08:52:18;;;;;;;59.75;36.72;;;;;;;20.71;79.40;101397.38;5065854;28;20044;-68
2022/08/19 08:54:47;;;;;;;56.45;32.67;;;;;;;20.70;78.22;101401.13;5063949;28;20036;-70
2022/08/19 08:57:19;;;;;;;58.47;34.78;;;;;;;20.72;78.83;101396.31;5067020;28;20047;-68
2022/08/19 08:59:51;;;;;;;52.45;34.28;;;;;;;20.82;78.74;101396.22;5066844;28;20040;-67
2022/08/19 09:02:18;;;;;;;57.00;33.83;;;;;;;20.89;78.22;101394.53;5065103;28;20059;-68
2022/08/19 09:04:43;;;;;;;62.85;36.70;;;;;;;20.95;78.43;101385.56;5049543;28;20174;-68
2022/08/19 09:07:21;;;;;;;68.25;36.33;;;;;;;20.97;77.78;101385.38;5066326;28;20563;-69
2022/08/19 09:09:50;;;;;;;53.42;34.47;;;;;;;21.11;77.42;101384.75;5063954;28;20499;-67
2022/08/19 09:12:41;;;;;;;56.33;35.05;;;;;;;21.33;76.58;101391.63;5066288;28;20487;-67
2022/08/19 09:15:10;;;;;;;55.15;34.83;;;;;;;21.45;76.05;101387.53;5049573;28;20491;-68
2022/08/19 09:17:38;;;;;;;51.30;33.53;;;;;;;21.58;75.96;101387.00;5065940;28;20119;-68
2022/08/19 09:20:08;;;;;;;50.60;34.20;;;;;;;21.51;76.46;101389.59;5063368;28;20153;-68
2022/08/19 09:22:35;;;;;;;47.30;30.63;;;;;;;21.41;74.75;101394.44;5064711;28;20063;-68
2022/08/19 09:25:01;;;;;;;51.30;31.30;;;;;;;21.26;73.99;101396.03;5063697;28;20173;-67
2022/08/19 09:27:27;;;;;;;46.58;29.10;;;;;;;21.24;75.37;101401.75;5066052;28;20119;-68
2022/08/19 09:29:53;;;;;;;45.97;29.90;;;;;;;21.14;75.07;101404.66;5064932;28;20463;-69
2022/08/19 09:32:20;;;;;;;47.65;31.90;;;;;;;21.15;74.70;101402.75;5064592;28;20105;-68
2022/08/19 09:34:46;;;;;;;57.72;33.15;;;;;;;21.21;75.71;101398.44;5063389;28;20074;-68
2022/08/19 09:37:12;;;;;;;50.40;31.67;;;;;;;21.33;75.70;101405.47;5065764;28;20057;-69
2022/08/19 09:39:38;;;;;;;53.95;33.47;;;;;;;21.39;74.83;101408.41;5062857;28;20054;-69
2022/08/19 09:42:04;;;;;;;51.45;32.45;;;;;;;21.51;75.21;101397.03;5065808;28;20049;-68
2022/08/19 09:44:29;;;;;;;54.00;33.75;;;;;;;21.65;74.09;101399.16;5066598;28;20071;-68
2022/08/19 09:46:55;;;;;;;54.40;32.83;;;;;;;21.76;74.26;101403.50;5065588;28;20072;-68
2022/08/19 09:49:21;;;;;;;51.53;34.15;;;;;;;21.73;74.50;101401.94;5065733;28;20480;-68
2022/08/19 09:51:50;;;;;;;52.35;32.05;;;;;;;21.73;72.96;101401.06;5064500;28;20115;-68
2022/08/19 09:54:15;;;;;;;52.35;34.30;;;;;;;21.58;73.94;101401.72;5061968;28;20040;-70
2022/08/19 09:56:41;;;;;;;56.80;32.13;;;;;;;21.55;74.83;101417.81;5066573;28;20101;-67
2022/08/19 09:59:06;;;;;;;55.50;34.28;;;;;;;21.47;74.72;101415.03;5064455;28;20511;-67
2022/08/19 10:01:33;;;;;;;58.97;34.95;;;;;;;21.53;75.69;101415.19;5065450;28;20376;-68
2022/08/19 10:04:01;;;;;;;58.00;33.70;;;;;;;21.61;74.10;101415.22;5064171;28;20125;-69
2022/08/19 10:06:31;;;;;;;56.53;34.17;;;;;;;21.67;73.71;101413.69;5063051;28;20048;-68
2022/08/19 10:08:56;;;;;;;61.80;37.10;;;;;;;21.70;74.84;101418.91;5060494;28;20140;-68
2022/08/19 10:11:22;;;;;;;56.50;37.10;;;;;;;21.73;74.21;101420.44;5065624;28;20119;-68
2022/08/19 10:13:48;;;;;;;61.92;35.75;;;;;;;21.88;74.47;101416.84;5064182;28;20032;-68
2022/08/19 10:16:17;;;;;;;53.22;33.17;;;;;;;22.03;72.97;101411.50;5065456;28;20476;-70
2022/08/19 10:18:43;;;;;;;53.63;34.75;;;;;;;22.15;73.19;101407.38;5065801;28;20589;-68
2022/08/19 10:21:14;;;;;;;53.28;34.08;;;;;;;22.28;71.04;101408.75;5046567;28;20141;-68
2022/08/19 10:23:46;;;;;;;55.30;33.38;;;;;;;22.34;71.67;101405.31;5062835;28;20021;-67
2022/08/19 10:26:14;;;;;;;56.55;33.72;;;;;;;22.41;72.86;101407.19;5067107;28;20067;-67
2022/08/19 10:28:40;;;;;;;48.20;32.22;;;;;;;22.49;71.44;101398.00;5068746;28;20360;-68
2022/08/19 10:31:08;;;;;;;52.97;32.33;;;;;;;22.44;70.33;101396.78;5069408;28;20044;-67
2022/08/19 10:33:35;;;;;;;55.20;31.38;;;;;;;22.46;69.71;101389.16;5068666;28;20040;-67
2022/08/19 10:36:04;;;;;;;52.63;33.13;;;;;;;22.39;70.25;101406.50;5067897;28;20459;-67
2022/08/19 10:38:29;;;;;;;47.10;32.70;;;;;;;22.48;70.97;101409.28;5066366;28;20460;-67
2022/08/19 10:40:55;;;;;;;50.13;32.58;;;;;;;22.58;69.72;101405.25;5068097;28;20066;-69
2022/08/19 10:43:20;;;;;;;54.08;31.70;;;;;;;22.60;70.82;101405.94;5069160;28;20446;-69
2022/08/19 10:45:54;;;;;;;48.72;31.33;;;;;;;22.63;70.18;101405.59;5067817;28;20040;-68
2022/08/19 10:48:20;;;;;;;46.92;31.15;;;;;;;22.76;69.35;101404.19;5068739;28;20032;-68
2022/08/19 10:53:29;;;;;;;44.17;29.83;;;;;;;23.04;67.95;101391.66;5066000;28;20115;-68
2022/08/19 10:58:41;;;;;;;47.47;29.98;;;;;;;23.18;68.73;101387.25;5069176;28;20040;-68
2022/08/19 11:01:06;;;;;;;44.83;29.70;;;;;;;23.26;68.23;101394.66;5067785;28;20029;-68
2022/08/19 11:03:32;;;;;;;44.10;30.73;;;;;;;23.32;67.17;101397.59;5068437;28;20551;-68
2022/08/19 11:06:06;;;;;;;43.40;29.30;;;;;;;23.33;67.46;101387.34;5067716;28;20055;-68
2022/08/19 11:08:34;;;;;;;42.03;28.95;;;;;;;23.31;67.39;101393.06;5066098;28;20047;-69
2022/08/19 11:11:02;;;;;;;46.85;29.67;;;;;;;23.38;67.25;101391.31;5067590;28;20042;-69
2022/08/19 11:13:30;;;;;;;48.15;31.13;;;;;;;23.44;66.47;101395.25;5068426;28;20047;-67
2022/08/19 11:16:00;;;;;;;42.60;29.20;;;;;;;23.42;66.17;101384.34;5067625;28;20020;-68
2022/08/19 11:18:26;;;;;;;44.50;27.88;;;;;;;23.47;66.52;101389.34;5068180;28;20127;-67
2022/08/19 11:20:52;;;;;;;41.95;27.48;;;;;;;23.52;67.92;101391.59;5066318;28;20174;-69
2022/08/19 11:23:17;;;;;;;44.22;28.98;;;;;;;23.76;66.04;101385.03;5065589;28;20032;-68
2022/08/19 11:25:43;;;;;;;41.40;28.35;;;;;;;24.17;66.66;101389.22;5067999;28;20043;-68
2022/08/19 11:28:08;;;;;;;43.38;29.05;;;;;;;24.38;64.81;101396.88;5068635;28;20027;-69
2022/08/19 11:30:33;;;;;;;46.20;29.02;;;;;;;24.76;63.85;101391.28;5068577;28;20032;-67
2022/08/19 11:33:00;;;;;;;44.00;28.92;;;;;;;25.03;62.33;101386.94;5065487;28;20044;-67